Time;durP1;ratioP1;P1;durP2;ratioP2;P2;SDS_P1;SDS_P2;PMS_P1;PMS_P2;Temp;Humidity;BMP_temperature;BMP_pressure;BME280_temperature;BME280_humidity;BME280_pressure;Samples;Min_cycle;Max_cycle;Signal;HPM_P1;HPM_P2
2023/03/16 00:02:09;;;;;;;3.10;2.22;;;17.70;65.40;;;;;;5114191;28;20051;-19
2023/03/16 00:04:36;;;;;;;2.95;2.13;;;17.60;65.40;;;;;;5113109;28;20126;-19
2023/03/16 00:07:04;;;;;;;3.72;2.40;;;17.70;65.40;;;;;;5114319;28;20035;-19
2023/03/16 00:09:30;;;;;;;4.10;2.15;;;17.70;65.40;;;;;;5114755;28;20013;-18
2023/03/16 00:11:57;;;;;;;3.97;2.17;;;17.60;65.40;;;;;;5114006;28;20024;-18
2023/03/16 00:14:25;;;;;;;3.13;2.00;;;17.60;65.40;;;;;;5114431;28;20031;-19
2023/03/16 00:16:52;;;;;;;3.13;2.30;;;17.60;65.30;;;;;;5114462;28;20098;-19
2023/03/16 00:19:18;;;;;;;3.83;2.25;;;17.60;65.30;;;;;;5114320;28;20026;-19
2023/03/16 00:21:44;;;;;;;3.67;2.40;;;17.60;65.40;;;;;;5114337;28;20027;-19
2023/03/16 00:24:11;;;;;;;4.63;2.25;;;17.60;65.30;;;;;;5114077;28;20386;-18
2023/03/16 00:26:37;;;;;;;2.63;2.22;;;17.60;65.40;;;;;;5114330;28;20023;-19
2023/03/16 00:29:03;;;;;;;3.53;2.13;;;17.60;65.30;;;;;;5114144;28;20031;-18
2023/03/16 00:31:32;;;;;;;3.33;2.13;;;17.60;65.30;;;;;;5114175;28;20060;-19
2023/03/16 00:33:58;;;;;;;3.70;2.60;;;17.60;65.30;;;;;;5113662;28;20028;-19
2023/03/16 00:36:24;;;;;;;3.08;2.05;;;17.60;65.30;;;;;;5114098;28;20146;-19
2023/03/16 00:38:51;;;;;;;4.07;2.40;;;17.50;65.30;;;;;;5113804;28;20030;-19
2023/03/16 00:41:17;;;;;;;3.30;2.15;;;17.60;65.40;;;;;;5113691;28;20031;-19
2023/03/16 00:43:44;;;;;;;2.88;2.40;;;17.60;65.40;;;;;;5113961;28;20114;-19
2023/03/16 00:46:15;;;;;;;2.80;2.15;;;17.50;65.30;;;;;;5113406;28;20372;-18
2023/03/16 00:48:45;;;;;;;2.78;2.10;;;17.50;65.40;;;;;;5114089;28;20023;-18
2023/03/16 00:51:15;;;;;;;2.97;2.17;;;17.50;65.40;;;;;;5113944;28;20028;-19
2023/03/16 00:53:43;;;;;;;3.55;2.13;;;17.50;65.40;;;;;;5113553;28;20058;-18
2023/03/16 00:56:10;;;;;;;3.10;2.25;;;17.50;65.30;;;;;;5113483;28;20028;-19
2023/03/16 00:58:42;;;;;;;4.32;2.45;;;17.50;65.40;;;;;;5113851;28;20023;-19
2023/03/16 01:01:12;;;;;;;3.08;2.10;;;17.50;65.30;;;;;;5113019;28;20051;-19
2023/03/16 01:03:39;;;;;;;3.80;2.58;;;17.50;65.30;;;;;;5113614;28;20114;-19
2023/03/16 01:06:09;;;;;;;3.53;2.20;;;17.40;65.40;;;;;;5111975;28;20028;-19
2023/03/16 01:08:36;;;;;;;2.90;2.03;;;17.40;65.30;;;;;;5113588;28;20118;-19
2023/03/16 01:11:07;;;;;;;2.47;2.13;;;17.40;65.40;;;;;;5113392;28;20070;-19
2023/03/16 01:13:33;;;;;;;4.05;2.33;;;17.40;65.40;;;;;;5113662;28;20027;-18
2023/03/16 01:15:59;;;;;;;2.58;2.38;;;17.40;65.40;;;;;;5113006;28;20032;-18
2023/03/16 01:18:27;;;;;;;2.40;1.95;;;17.40;65.40;;;;;;5113682;28;20032;-18
2023/03/16 01:20:53;;;;;;;2.47;2.20;;;17.40;65.30;;;;;;5112071;28;20035;-19
2023/03/16 01:23:21;;;;;;;4.22;2.55;;;17.40;65.30;;;;;;5113562;28;20032;-18
2023/03/16 01:25:52;;;;;;;2.78;2.30;;;17.40;65.40;;;;;;5113278;28;20085;-23
2023/03/16 01:28:23;;;;;;;2.65;2.20;;;17.40;65.40;;;;;;5113625;28;20027;-19
2023/03/16 01:30:56;;;;;;;2.55;2.03;;;17.40;65.40;;;;;;5113119;28;20058;-18
2023/03/16 01:33:25;;;;;;;3.53;2.10;;;17.40;65.40;;;;;;5113584;28;20522;-19
2023/03/16 01:36:12;;;;;;;2.47;2.10;;;17.40;65.40;;;;;;5112974;28;20023;-19
2023/03/16 01:38:38;;;;;;;2.25;2.00;;;17.40;65.40;;;;;;5112665;28;20024;-19
2023/03/16 01:41:04;;;;;;;2.50;2.30;;;17.40;65.40;;;;;;5113042;28;20036;-20
2023/03/16 01:43:33;;;;;;;4.05;2.40;;;17.40;65.40;;;;;;5113271;28;20051;-20
2023/03/16 01:46:04;;;;;;;2.30;2.10;;;17.40;65.40;;;;;;5112812;28;20166;-19
2023/03/16 01:48:36;;;;;;;4.35;2.28;;;17.40;65.30;;;;;;5113087;28;20024;-19
2023/03/16 01:51:16;;;;;;;3.50;2.40;;;17.40;65.40;;;;;;5113379;28;20032;-19
2023/03/16 01:53:45;;;;;;;2.88;2.30;;;17.30;65.40;;;;;;5111843;28;20069;-20
2023/03/16 01:56:15;;;;;;;2.78;2.08;;;17.30;65.30;;;;;;5112898;28;20036;-19
2023/03/16 01:58:42;;;;;;;3.08;2.08;;;17.30;65.30;;;;;;5112948;28;20027;-20
2023/03/16 02:01:09;;;;;;;3.97;2.33;;;17.30;65.30;;;;;;5112625;28;20051;-19
2023/03/16 02:03:35;;;;;;;2.58;2.15;;;17.30;65.30;;;;;;5113279;28;20076;-19
2023/03/16 02:06:10;;;;;;;3.17;2.30;;;17.30;65.30;;;;;;5112910;28;20386;-21
2023/03/16 02:08:38;;;;;;;2.30;2.10;;;17.30;65.40;;;;;;5116161;28;20055;-19
2023/03/16 02:11:06;;;;;;;2.67;2.00;;;17.30;65.40;;;;;;5116838;28;20020;-19
2023/03/16 02:13:35;;;;;;;2.75;2.17;;;17.30;65.40;;;;;;5116602;28;20145;-19
2023/03/16 02:16:04;;;;;;;2.97;2.10;;;17.20;65.40;;;;;;5116240;28;20063;-20
2023/03/16 02:18:30;;;;;;;2.30;1.95;;;17.20;65.40;;;;;;5116715;28;20024;-20
2023/03/16 02:21:02;;;;;;;2.42;1.95;;;17.30;65.40;;;;;;5116547;28;20114;-19
2023/03/16 02:23:31;;;;;;;2.45;2.08;;;17.20;65.50;;;;;;5116546;28;20080;-18
2023/03/16 02:26:54;;;;;;;3.72;2.28;;;17.20;65.50;;;;;;5114980;28;20028;-18
2023/03/16 02:29:38;;;;;;;2.78;1.77;;;17.20;65.50;;;;;;5016898;28;20029;-19
2023/03/16 02:32:05;;;;;;;3.00;2.00;;;17.20;65.50;;;;;;5033448;28;20125;-18
2023/03/16 02:34:31;;;;;;;2.50;2.05;;;17.20;65.60;;;;;;5033600;28;20037;-18
2023/03/16 02:36:58;;;;;;;2.72;2.25;;;17.20;65.60;;;;;;5033474;28;20069;-19
2023/03/16 02:39:24;;;;;;;2.78;2.13;;;17.20;65.50;;;;;;5033651;28;20596;-19
2023/03/16 02:41:53;;;;;;;2.05;1.88;;;17.20;65.60;;;;;;5033257;28;20037;-19
2023/03/16 02:44:24;;;;;;;3.33;2.20;;;17.20;65.60;;;;;;5033125;28;20090;-19
2023/03/16 02:46:53;;;;;;;2.80;1.92;;;17.20;65.60;;;;;;5033081;28;20409;-19
2023/03/16 02:49:32;;;;;;;2.25;2.05;;;17.10;65.60;;;;;;5033302;28;20034;-19
2023/03/16 02:51:58;;;;;;;2.30;1.90;;;17.20;65.60;;;;;;5033106;28;20029;-19
2023/03/16 02:54:24;;;;;;;3.92;2.13;;;17.10;65.60;;;;;;5033381;28;20034;-19
2023/03/16 02:56:50;;;;;;;2.65;1.95;;;17.10;65.50;;;;;;5033092;28;20111;-20
2023/03/16 02:59:16;;;;;;;2.67;1.95;;;17.10;65.60;;;;;;5047096;28;20039;-19
2023/03/16 03:01:42;;;;;;;2.45;1.88;;;17.10;65.60;;;;;;5114215;28;20110;-19
2023/03/16 03:04:08;;;;;;;2.35;1.88;;;17.10;65.60;;;;;;5115718;28;20032;-18
2023/03/16 03:06:34;;;;;;;2.53;2.08;;;17.10;65.60;;;;;;5115572;28;20466;-19
2023/03/16 03:09:01;;;;;;;1.85;1.67;;;17.10;65.60;;;;;;5115852;28;20024;-19
2023/03/16 03:11:27;;;;;;;2.67;2.13;;;17.10;65.70;;;;;;5115572;28;20031;-19
2023/03/16 03:13:53;;;;;;;2.20;1.85;;;17.10;65.60;;;;;;5115528;28;20027;-19
2023/03/16 03:16:20;;;;;;;2.22;1.80;;;17.00;65.70;;;;;;5115565;28;20092;-18
2023/03/16 03:18:46;;;;;;;2.88;2.15;;;17.10;65.70;;;;;;5115250;28;20027;-19
2023/03/16 03:21:13;;;;;;;2.75;2.17;;;17.00;65.70;;;;;;5115153;28;20064;-19
2023/03/16 03:23:38;;;;;;;2.40;1.88;;;17.00;65.70;;;;;;5115207;28;20367;-20
2023/03/16 03:26:05;;;;;;;2.42;2.05;;;17.00;65.70;;;;;;5114889;28;20023;-19
2023/03/16 03:28:33;;;;;;;2.33;1.90;;;17.00;65.70;;;;;;5115198;28;20107;-19
2023/03/16 03:31:00;;;;;;;2.67;1.80;;;17.00;65.70;;;;;;5115274;28;20027;-20
2023/03/16 03:33:26;;;;;;;2.42;1.92;;;17.00;65.70;;;;;;5115344;28;20035;-19
2023/03/16 07:16:36;;;;;;;1.77;1.60;;;19.20;60.80;;;;;;5108958;27;20445;-20
2023/03/16 07:19:02;;;;;;;3.83;1.77;;;19.40;60.50;;;;;;5111014;28;20494;-21
2023/03/16 07:21:28;;;;;;;1.73;1.63;;;19.40;60.20;;;;;;5110904;28;20031;-21
2023/03/16 07:23:54;;;;;;;1.70;1.60;;;19.40;60.00;;;;;;5110701;28;20020;-21
2023/03/16 07:26:20;;;;;;;5.22;2.03;;;19.50;60.00;;;;;;5111501;28;20020;-19
2023/03/16 07:28:46;;;;;;;4.00;1.90;;;19.60;59.80;;;;;;5111121;28;20036;-19
2023/03/16 07:31:13;;;;;;;1.77;1.67;;;19.80;59.70;;;;;;5110598;28;20043;-18
2023/03/16 07:33:39;;;;;;;1.90;1.70;;;20.00;59.30;;;;;;5110987;28;20043;-19
2023/03/16 07:36:07;;;;;;;3.55;1.80;;;20.40;58.60;;;;;;5110808;28;20111;-19
2023/03/16 07:38:34;;;;;;;2.35;1.48;;;20.60;58.00;;;;;;5110943;28;20035;-21
2023/03/16 07:41:00;;;;;;;3.88;1.80;;;20.90;57.70;;;;;;5110873;28;20149;-19
2023/03/16 07:43:25;;;;;;;2.75;1.63;;;21.20;56.90;;;;;;5110813;28;20134;-18
2023/03/16 07:45:52;;;;;;;1.88;1.60;;;21.30;56.40;;;;;;5110156;28;20090;-19
2023/03/16 07:48:18;;;;;;;2.55;1.60;;;21.30;56.50;;;;;;5110761;28;20028;-20
2023/03/16 07:50:46;;;;;;;2.50;2.15;;;21.20;56.70;;;;;;5110544;28;20028;-20
2023/03/16 07:53:14;;;;;;;2.92;1.75;;;20.90;57.10;;;;;;5110344;28;20020;-19
2023/03/16 07:55:41;;;;;;;1.80;1.50;;;20.80;57.40;;;;;;5110036;28;20032;-21
2023/03/16 07:58:09;;;;;;;2.95;1.58;;;20.60;57.80;;;;;;5109666;28;20031;-20
2023/03/16 08:00:35;;;;;;;1.80;1.52;;;20.50;58.10;;;;;;5109698;28;20035;-20
2023/03/16 08:03:02;;;;;;;1.73;1.60;;;20.40;58.40;;;;;;5110342;28;20028;-20
2023/03/16 08:05:28;;;;;;;2.35;1.90;;;20.20;58.60;;;;;;5110349;28;20050;-20
2023/03/16 08:07:57;;;;;;;3.22;1.48;;;20.10;58.80;;;;;;5109658;28;20379;-20
2023/03/16 08:10:23;;;;;;;2.78;1.83;;;20.00;59.00;;;;;;5110039;28;20387;-20
2023/03/16 08:12:50;;;;;;;2.13;1.70;;;19.90;59.10;;;;;;5110328;28;20020;-20
2023/03/16 08:15:16;;;;;;;2.03;1.52;;;19.80;59.10;;;;;;5109431;28;20143;-20
2023/03/16 08:17:42;;;;;;;4.38;1.80;;;19.70;59.20;;;;;;5110263;28;20535;-20
2023/03/16 08:20:11;;;;;;;3.35;1.70;;;19.70;59.20;;;;;;5110308;28;20027;-20
2023/03/16 08:22:37;;;;;;;1.67;1.55;;;19.50;59.20;;;;;;5109778;28;20067;-20
2023/03/16 08:25:04;;;;;;;2.15;1.80;;;19.50;59.20;;;;;;5108424;28;20031;-20
2023/03/16 08:27:31;;;;;;;2.03;1.73;;;19.50;59.20;;;;;;5098752;28;20375;-20
2023/03/16 08:30:03;;;;;;;3.83;2.00;;;19.40;59.10;;;;;;5095803;28;20027;-20
2023/03/16 08:32:29;;;;;;;2.92;1.80;;;19.40;59.00;;;;;;5096798;28;20024;-20
2023/03/16 08:34:56;;;;;;;3.25;1.65;;;19.40;58.90;;;;;;5095291;28;20437;-21
2023/03/16 08:37:23;;;;;;;1.88;1.65;;;19.30;58.90;;;;;;5094256;28;20024;-20
2023/03/16 08:39:50;;;;;;;4.60;2.00;;;19.30;58.90;;;;;;5095721;28;20032;-21
2023/03/16 08:42:18;;;;;;;4.20;1.77;;;19.30;59.00;;;;;;5095708;28;20036;-20
2023/03/16 08:44:44;;;;;;;4.18;1.63;;;19.30;58.90;;;;;;5095634;28;20141;-20
2023/03/16 08:47:10;;;;;;;2.20;1.80;;;19.20;58.80;;;;;;5095761;28;20081;-20
2023/03/16 08:49:36;;;;;;;2.72;1.80;;;19.20;58.80;;;;;;5095951;28;20023;-20
2023/03/16 08:52:04;;;;;;;2.80;1.90;;;19.20;58.60;;;;;;5095622;28;20043;-20
2023/03/16 08:54:31;;;;;;;4.82;1.88;;;19.20;58.40;;;;;;5095513;28;20035;-20
2023/03/16 08:56:57;;;;;;;2.35;1.80;;;19.20;58.30;;;;;;5095853;28;20108;-20
2023/03/16 08:59:23;;;;;;;3.15;1.98;;;19.20;58.20;;;;;;5095905;28;20056;-21
2023/03/16 09:01:49;;;;;;;2.33;1.60;;;19.10;58.10;;;;;;5094170;28;20059;-21
2023/03/16 09:04:15;;;;;;;3.97;1.83;;;19.10;57.80;;;;;;5095932;28;20035;-21
2023/03/16 09:06:41;;;;;;;3.55;1.73;;;19.10;57.70;;;;;;5095093;28;20539;-21
2023/03/16 09:09:08;;;;;;;2.53;1.58;;;19.10;57.60;;;;;;5095585;28;20028;-21
2023/03/16 09:11:34;;;;;;;1.77;1.52;;;19.10;57.60;;;;;;5095562;28;20039;-21
2023/03/16 09:14:01;;;;;;;1.83;1.40;;;19.10;57.50;;;;;;5094971;28;20103;-21
2023/03/16 09:16:29;;;;;;;3.67;1.33;;;19.10;57.40;;;;;;5094991;28;20058;-21
2023/03/16 09:18:56;;;;;;;2.83;1.50;;;19.10;57.20;;;;;;5095139;28;20028;-21
2023/03/16 09:21:22;;;;;;;1.48;1.38;;;19.00;57.00;;;;;;5095343;28;20015;-20
2023/03/16 09:23:48;;;;;;;2.08;1.35;;;19.00;56.80;;;;;;5094805;28;20028;-20
2023/03/16 09:26:14;;;;;;;2.33;1.40;;;19.00;56.60;;;;;;5095249;28;20387;-20
2023/03/16 09:28:41;;;;;;;2.65;1.40;;;19.00;56.40;;;;;;5095184;28;20118;-20
2023/03/16 09:31:08;;;;;;;1.73;1.35;;;18.90;56.10;;;;;;5094464;28;20032;-19
2023/03/16 09:33:34;;;;;;;2.45;1.25;;;18.90;55.90;;;;;;5093759;28;20368;-19
2023/03/16 09:36:01;;;;;;;2.13;1.58;;;18.90;55.50;;;;;;5094803;28;20111;-20
2023/03/16 09:38:29;;;;;;;1.55;1.35;;;18.90;55.10;;;;;;5093858;28;20022;-20
2023/03/16 09:41:06;;;;;;;2.20;1.50;;;18.90;54.80;;;;;;5094740;28;20507;-20
2023/03/16 09:43:42;;;;;;;1.75;1.27;;;18.90;54.50;;;;;;5094664;28;20076;-21
2023/03/16 09:46:29;;;;;;;2.03;1.40;;;18.90;54.20;;;;;;5094808;28;20032;-21
2023/03/16 09:48:56;;;;;;;2.08;1.30;;;18.80;53.90;;;;;;5094609;28;20028;-21
2023/03/16 09:51:38;;;;;;;2.10;1.20;;;18.80;54.10;;;;;;5094807;28;20029;-21
2023/03/16 09:54:14;;;;;;;2.72;1.38;;;18.80;53.80;;;;;;5094619;28;20039;-22
2023/03/16 09:56:42;;;;;;;3.20;1.60;;;18.80;53.80;;;;;;5094738;28;20032;-20
2023/03/16 09:59:14;;;;;;;4.47;1.40;;;18.80;53.70;;;;;;5094595;28;20059;-21
2023/03/16 10:01:53;;;;;;;2.03;1.35;;;18.80;53.40;;;;;;5094146;28;20027;-21
2023/03/16 10:04:41;;;;;;;1.92;1.20;;;18.70;53.20;;;;;;5094838;28;20051;-21
2023/03/16 10:07:11;;;;;;;4.03;1.30;;;18.70;53.40;;;;;;5093989;28;20487;-22
2023/03/16 10:09:53;;;;;;;2.58;1.20;;;18.70;53.30;;;;;;5093803;28;20394;-20
2023/03/16 10:12:22;;;;;;;1.42;1.02;;;18.70;53.00;;;;;;5093990;28;20020;-21
2023/03/16 10:15:04;;;;;;;1.42;1.20;;;18.70;53.10;;;;;;5093640;28;20048;-21
2023/03/16 10:17:41;;;;;;;2.33;1.33;;;18.70;52.90;;;;;;5094046;28;20510;-20
2023/03/16 10:20:17;;;;;;;1.70;1.27;;;18.70;52.80;;;;;;5094069;28;20020;-21
2023/03/16 10:22:45;;;;;;;2.42;1.40;;;18.60;52.70;;;;;;5093959;28;20080;-21
2023/03/16 10:25:30;;;;;;;1.60;1.10;;;18.70;52.70;;;;;;5094135;28;20012;-21
2023/03/16 10:27:56;;;;;;;1.23;1.00;;;18.60;52.50;;;;;;5092330;28;20491;-21
2023/03/16 10:30:28;;;;;;;2.55;1.20;;;18.60;52.80;;;;;;5092461;28;20032;-21
2023/03/16 10:32:59;;;;;;;1.23;1.13;;;18.60;52.80;;;;;;5094175;28;20098;-21
2023/03/16 10:35:49;;;;;;;2.63;1.30;;;18.60;52.70;;;;;;5093401;28;20400;-21
2023/03/16 10:38:39;;;;;;;2.47;1.67;;;18.60;52.50;;;;;;5094134;28;20383;-20
2023/03/16 10:41:17;;;;;;;3.90;1.58;;;18.60;52.20;;;;;;5093924;28;20024;-21
2023/03/16 10:43:46;;;;;;;2.78;1.27;;;18.60;52.40;;;;;;5093297;28;20097;-20
2023/03/16 10:46:12;;;;;;;1.88;1.33;;;18.60;52.50;;;;;;5093442;28;20016;-21
2023/03/16 10:48:39;;;;;;;3.00;1.25;;;18.50;52.50;;;;;;5093518;28;20036;-20
2023/03/16 10:51:14;;;;;;;2.35;1.50;;;18.50;52.70;;;;;;5093202;28;20503;-20
2023/03/16 10:53:43;;;;;;;2.25;1.40;;;18.50;52.60;;;;;;5093460;28;20430;-21
2023/03/16 10:56:12;;;;;;;1.40;0.98;;;18.50;52.60;;;;;;5093603;28;20028;-20
2023/03/16 10:58:41;;;;;;;3.15;1.50;;;18.60;52.70;;;;;;5093243;28;20433;-20
2023/03/16 11:01:16;;;;;;;1.75;1.40;;;18.60;52.80;;;;;;5093597;28;20032;-20
2023/03/16 11:03:50;;;;;;;1.95;1.50;;;18.60;52.90;;;;;;5093737;28;20024;-21
2023/03/16 11:06:21;;;;;;;2.10;1.50;;;18.60;52.90;;;;;;5093404;28;20028;-21
2023/03/16 11:08:52;;;;;;;2.55;1.55;;;18.60;53.00;;;;;;5093572;28;20024;-21
2023/03/16 11:11:31;;;;;;;3.00;1.60;;;18.60;52.90;;;;;;5093466;28;20121;-21
2023/03/16 11:14:00;;;;;;;2.38;1.48;;;18.60;52.80;;;;;;5093331;28;20056;-21
2023/03/16 11:17:08;;;;;;;1.40;1.20;;;18.60;53.10;;;;;;5093286;28;20048;-20
2023/03/16 11:19:46;;;;;;;2.42;1.35;;;18.50;53.10;;;;;;5093017;28;20056;-21
2023/03/16 11:22:22;;;;;;;1.85;1.40;;;18.60;53.40;;;;;;5093207;28;20387;-21
2023/03/16 11:25:04;;;;;;;2.80;1.35;;;18.50;53.40;;;;;;5093434;28;20024;-21
2023/03/16 11:27:44;;;;;;;1.58;1.48;;;18.60;53.20;;;;;;5093120;28;20044;-21
2023/03/16 11:30:18;;;;;;;2.13;1.48;;;18.50;53.30;;;;;;5093308;28;20027;-21
2023/03/16 11:32:49;;;;;;;1.77;1.33;;;18.60;53.50;;;;;;5093050;28;20031;-21
2023/03/16 11:35:52;;;;;;;2.17;1.35;;;18.60;53.50;;;;;;5093267;28;20059;-21
2023/03/16 11:38:52;;;;;;;2.47;1.60;;;18.50;53.40;;;;;;5092955;28;20485;-20
2023/03/16 11:41:37;;;;;;;3.65;1.25;;;18.60;53.30;;;;;;5093089;28;20432;-21
2023/03/16 11:44:21;;;;;;;1.50;1.13;;;18.50;53.30;;;;;;5092718;28;20368;-30
2023/03/16 11:47:04;;;;;;;2.47;1.48;;;18.50;53.50;;;;;;5092956;28;20540;-21
2023/03/16 11:49:55;;;;;;;2.90;1.30;;;18.50;53.70;;;;;;5092966;28;20047;-21
2023/03/16 11:52:27;;;;;;;2.50;1.30;;;18.50;53.80;;;;;;5092825;28;20292;-21
2023/03/16 11:54:59;;;;;;;2.17;1.55;;;18.50;54.10;;;;;;5093208;28;20442;-21
2023/03/16 11:57:46;;;;;;;1.40;1.27;;;18.50;54.30;;;;;;5093144;28;20055;-20
2023/03/16 12:00:43;;;;;;;1.75;1.30;;;18.50;54.20;;;;;;5092677;28;20109;-20
2023/03/16 12:03:31;;;;;;;2.85;1.30;;;18.50;54.10;;;;;;5096518;28;20031;-21
2023/03/16 12:06:19;;;;;;;2.72;1.17;;;18.50;54.20;;;;;;5096322;28;20489;-21
2023/03/16 12:09:18;;;;;;;1.30;1.20;;;18.50;54.40;;;;;;5096596;28;20064;-21
2023/03/16 12:11:56;;;;;;;1.63;1.25;;;18.50;54.40;;;;;;5096247;28;20387;-21
2023/03/16 12:14:39;;;;;;;2.53;1.33;;;18.50;54.70;;;;;;5096101;28;20479;-21
2023/03/16 12:17:08;;;;;;;3.17;1.40;;;18.50;54.90;;;;;;5096465;28;20020;-20
2023/03/16 12:19:52;;;;;;;2.28;1.30;;;18.50;54.90;;;;;;5096433;28;20387;-21
2023/03/16 12:22:37;;;;;;;3.65;1.35;;;18.50;54.80;;;;;;5096311;28;20060;-21
2023/03/16 12:25:19;;;;;;;2.33;1.40;;;18.50;54.90;;;;;;5096251;28;20027;-20
2023/03/16 12:27:48;;;;;;;1.90;1.10;;;18.40;54.90;;;;;;5095989;28;20149;-21
2023/03/16 12:30:20;;;;;;;1.30;1.17;;;18.50;54.90;;;;;;5096348;28;20107;-20
2023/03/16 12:33:00;;;;;;;1.67;1.05;;;18.40;54.90;;;;;;5096072;28;20036;-20
2023/03/16 12:35:44;;;;;;;2.60;1.20;;;18.40;54.90;;;;;;5095946;28;20119;-20
2023/03/16 12:38:28;;;;;;;1.63;1.17;;;18.40;55.00;;;;;;5096287;28;20050;-20
2023/03/16 12:41:19;;;;;;;1.38;1.20;;;18.40;55.10;;;;;;5095736;28;20028;-20
2023/03/16 12:43:51;;;;;;;1.73;1.27;;;18.40;55.30;;;;;;5095668;28;20035;-21
2023/03/16 12:46:29;;;;;;;1.80;1.20;;;18.40;55.40;;;;;;5095576;28;20032;-21
2023/03/16 12:49:00;;;;;;;1.88;1.30;;;18.40;55.50;;;;;;5096199;28;20032;-20
2023/03/16 12:51:37;;;;;;;1.90;1.20;;;18.40;55.50;;;;;;5096058;28;20027;-21
2023/03/16 12:54:05;;;;;;;1.77;1.20;;;18.40;55.50;;;;;;5095387;28;20119;-21
2023/03/16 12:56:43;;;;;;;1.88;1.20;;;18.40;55.60;;;;;;5095425;28;20473;-21
2023/03/16 12:59:16;;;;;;;1.10;1.00;;;18.40;55.70;;;;;;5095914;28;20031;-21
2023/03/16 13:01:44;;;;;;;1.20;0.95;;;18.40;55.80;;;;;;5095330;28;20028;-25
2023/03/16 13:04:13;;;;;;;2.15;1.25;;;18.40;55.90;;;;;;5095655;28;20061;-22
2023/03/16 13:06:44;;;;;;;1.20;1.10;;;18.40;55.90;;;;;;5095172;28;20119;-21
2023/03/16 13:09:17;;;;;;;1.92;1.40;;;18.40;56.10;;;;;;5095412;28;20087;-21
2023/03/16 13:11:49;;;;;;;3.90;1.50;;;18.40;56.10;;;;;;5095385;28;20020;-23
2023/03/16 13:14:39;;;;;;;1.63;1.20;;;18.40;56.10;;;;;;5095565;28;20405;-21
2023/03/16 13:17:22;;;;;;;1.33;1.05;;;18.40;56.10;;;;;;5095228;28;20040;-21
2023/03/16 13:20:04;;;;;;;1.67;1.10;;;18.40;56.20;;;;;;5095228;28;20059;-21
2023/03/16 13:22:45;;;;;;;1.70;1.27;;;18.40;56.30;;;;;;5095028;28;20031;-21
2023/03/16 13:25:35;;;;;;;2.47;1.25;;;18.40;56.40;;;;;;5095263;28;20031;-20
2023/03/16 13:28:04;;;;;;;1.73;1.38;;;18.40;56.60;;;;;;5094798;28;20502;-20
2023/03/16 13:30:33;;;;;;;1.35;1.25;;;18.40;56.70;;;;;;5094838;28;20105;-20
2023/03/16 13:33:07;;;;;;;2.50;1.13;;;18.40;56.60;;;;;;5094868;28;20505;-20
2023/03/16 13:35:38;;;;;;;1.55;1.30;;;18.40;56.60;;;;;;5094789;28;20123;-19
2023/03/16 13:38:05;;;;;;;1.48;1.30;;;18.40;56.60;;;;;;5094599;28;20024;-20
2023/03/16 13:40:32;;;;;;;2.08;1.35;;;18.40;56.20;;;;;;5095317;28;20032;-20
2023/03/16 13:43:00;;;;;;;2.47;1.48;;;18.40;56.10;;;;;;5093351;28;20024;-20
2023/03/16 13:45:36;;;;;;;2.65;1.45;;;18.40;55.90;;;;;;5094550;28;20028;-21
2023/03/16 13:48:02;;;;;;;1.88;1.50;;;18.40;55.70;;;;;;5094376;28;20479;-20
2023/03/16 13:50:33;;;;;;;2.88;1.33;;;18.40;55.50;;;;;;5093271;28;20093;-21
2023/03/16 13:53:02;;;;;;;1.70;1.13;;;18.40;55.40;;;;;;5094796;28;20081;-21
2023/03/16 13:55:34;;;;;;;1.95;1.23;;;18.40;55.40;;;;;;5094297;28;20038;-21
2023/03/16 13:58:01;;;;;;;2.40;1.25;;;18.40;55.60;;;;;;5094148;28;20032;-21
2023/03/16 14:00:33;;;;;;;2.17;1.42;;;18.40;55.60;;;;;;5094221;28;20045;-20
2023/03/16 14:03:05;;;;;;;2.65;1.17;;;18.40;55.80;;;;;;5094279;28;20073;-20
2023/03/16 14:05:34;;;;;;;3.45;1.63;;;18.40;55.70;;;;;;5094136;28;20127;-20
2023/03/16 14:08:01;;;;;;;2.03;1.27;;;18.40;56.00;;;;;;5093871;28;20030;-20
2023/03/16 14:10:33;;;;;;;2.78;1.70;;;18.40;56.30;;;;;;5094330;28;20024;-21
2023/03/16 14:13:32;;;;;;;3.13;1.05;;;18.40;56.60;;;;;;5094022;28;20099;-21
2023/03/16 14:16:07;;;;;;;2.60;1.45;;;18.40;56.80;;;;;;5093622;28;20044;-21
2023/03/16 14:18:42;;;;;;;1.63;1.17;;;18.40;56.40;;;;;;5094439;28;20020;-21
2023/03/16 14:21:21;;;;;;;2.15;1.33;;;18.40;56.50;;;;;;5093972;28;20048;-21
2023/03/16 14:24:03;;;;;;;3.47;2.10;;;18.40;56.40;;;;;;5093442;28;20089;-20
2023/03/16 14:26:44;;;;;;;3.30;1.58;;;18.40;56.40;;;;;;5093811;28;20034;-20
2023/03/16 14:29:29;;;;;;;1.67;1.23;;;18.30;56.20;;;;;;5093722;28;20055;-21
2023/03/16 14:31:57;;;;;;;2.78;1.52;;;18.40;56.50;;;;;;5092403;28;20035;-20
2023/03/16 14:34:35;;;;;;;1.52;1.42;;;18.30;56.40;;;;;;5093717;28;20491;-20
2023/03/16 14:37:18;;;;;;;4.35;1.52;;;18.40;56.20;;;;;;5093774;28;20036;-20
2023/03/16 14:39:44;;;;;;;1.58;1.40;;;18.30;56.30;;;;;;5093557;28;20081;-21
2023/03/16 14:42:29;;;;;;;3.10;1.30;;;18.40;56.20;;;;;;5093955;28;20092;-20
2023/03/16 14:45:06;;;;;;;1.83;1.55;;;18.40;56.30;;;;;;5093546;28;20356;-21
2023/03/16 14:47:40;;;;;;;3.60;1.40;;;18.30;56.30;;;;;;5093953;28;20020;-20
2023/03/16 14:50:11;;;;;;;1.52;1.30;;;18.30;56.30;;;;;;5093387;28;20024;-20
2023/03/16 14:52:38;;;;;;;1.10;1.00;;;18.30;56.30;;;;;;5093539;28;20395;-20
2023/03/16 14:55:16;;;;;;;2.35;1.17;;;18.30;56.50;;;;;;5093717;28;20032;-20
2023/03/16 14:57:44;;;;;;;2.63;1.33;;;18.30;56.70;;;;;;5093427;28;20027;-21
2023/03/16 15:00:14;;;;;;;1.33;1.15;;;18.30;56.70;;;;;;5093302;28;20035;-20
2023/03/16 15:02:49;;;;;;;1.45;1.35;;;18.30;56.70;;;;;;5093351;28;20028;-20
2023/03/16 15:05:23;;;;;;;2.20;1.40;;;18.30;56.70;;;;;;5093331;28;20024;-21
2023/03/16 15:07:53;;;;;;;1.90;1.45;;;18.30;56.70;;;;;;5093468;28;20032;-21
2023/03/16 15:10:32;;;;;;;4.30;1.63;;;18.30;56.70;;;;;;5092089;28;20024;-20
2023/03/16 15:13:11;;;;;;;2.00;1.13;;;18.30;56.70;;;;;;5093270;28;20120;-21
2023/03/16 15:15:41;;;;;;;1.30;1.20;;;18.30;56.70;;;;;;5093017;28;20091;-20
2023/03/16 15:18:07;;;;;;;3.88;1.65;;;18.30;56.80;;;;;;5092898;28;20106;-21
2023/03/16 15:20:40;;;;;;;3.08;1.80;;;18.30;56.70;;;;;;5093636;28;20368;-21
2023/03/16 15:23:09;;;;;;;2.42;1.70;;;18.30;56.40;;;;;;5093416;28;20070;-20
2023/03/16 15:25:41;;;;;;;1.63;1.48;;;18.30;56.30;;;;;;5093140;28;20467;-21
2023/03/16 15:28:16;;;;;;;1.20;1.10;;;18.30;56.30;;;;;;5092843;28;20030;-20
2023/03/16 15:30:50;;;;;;;1.52;1.10;;;18.30;56.50;;;;;;5092914;28;20085;-21
2023/03/16 15:33:16;;;;;;;0.82;0.82;;;18.30;56.80;;;;;;5091876;28;20030;-21
2023/03/16 15:35:45;;;;;;;1.58;1.20;;;18.20;56.90;;;;;;5093139;28;20028;-21
2023/03/16 15:38:14;;;;;;;1.63;1.30;;;18.20;56.90;;;;;;5097274;28;20063;-21
2023/03/16 15:40:44;;;;;;;2.00;1.60;;;18.20;56.70;;;;;;5097305;28;20055;-20
2023/03/16 15:43:12;;;;;;;1.98;1.50;;;18.20;56.70;;;;;;5097026;28;20032;-20
2023/03/16 15:45:38;;;;;;;2.03;1.23;;;18.20;56.80;;;;;;5097068;28;20026;-21
2023/03/16 15:48:05;;;;;;;2.47;1.65;;;18.20;57.00;;;;;;5096749;28;20027;-21
2023/03/16 15:50:31;;;;;;;1.52;1.20;;;18.20;56.90;;;;;;5097157;28;20035;-20
2023/03/16 15:53:04;;;;;;;1.95;1.33;;;18.20;56.80;;;;;;5097024;28;20098;-21
2023/03/16 15:55:42;;;;;;;1.33;1.20;;;18.20;56.60;;;;;;5097296;28;20055;-21
2023/03/16 15:58:18;;;;;;;1.17;1.08;;;18.20;56.60;;;;;;5096728;28;20027;-21
2023/03/16 16:00:45;;;;;;;1.63;1.30;;;18.20;56.50;;;;;;5096632;28;20059;-21
2023/03/16 16:03:12;;;;;;;1.85;1.25;;;18.20;56.60;;;;;;5096946;28;20043;-21
2023/03/16 16:05:39;;;;;;;1.50;1.38;;;18.20;56.50;;;;;;5096753;28;20122;-21
2023/03/16 16:08:05;;;;;;;1.13;1.00;;;18.20;56.30;;;;;;5096411;28;20035;-21
2023/03/16 16:10:33;;;;;;;1.88;1.08;;;18.20;56.50;;;;;;5096915;28;20031;-20
2023/03/16 16:13:00;;;;;;;2.67;1.35;;;18.20;56.90;;;;;;5096722;28;20024;-22
2023/03/16 16:15:31;;;;;;;1.45;1.30;;;18.20;56.80;;;;;;5096181;28;20521;-21
2023/03/16 16:17:57;;;;;;;1.42;1.23;;;18.10;56.80;;;;;;5096478;28;20055;-21
2023/03/16 16:20:28;;;;;;;1.48;1.15;;;18.20;56.60;;;;;;5096771;28;20024;-20
2023/03/16 16:22:58;;;;;;;1.85;1.17;;;18.20;56.60;;;;;;5096012;28;20480;-21
2023/03/16 16:25:26;;;;;;;1.25;1.10;;;18.20;56.50;;;;;;5095831;28;20047;-21
2023/03/16 16:27:53;;;;;;;1.40;1.30;;;18.20;56.60;;;;;;5095801;28;20028;-21
2023/03/16 16:30:23;;;;;;;1.05;1.02;;;18.20;56.60;;;;;;5095380;28;20020;-21
2023/03/16 16:32:50;;;;;;;1.55;1.30;;;18.10;56.50;;;;;;5096205;28;20028;-20
2023/03/16 16:35:26;;;;;;;2.60;1.20;;;18.20;56.50;;;;;;5095665;28;20043;-20
2023/03/16 16:37:52;;;;;;;2.08;1.30;;;18.10;56.40;;;;;;5095306;28;20382;-21
2023/03/16 16:40:22;;;;;;;1.38;1.20;;;18.10;56.40;;;;;;5095471;28;20024;-20
2023/03/16 16:42:51;;;;;;;1.15;0.90;;;18.10;56.50;;;;;;5095677;28;20112;-20
2023/03/16 16:45:24;;;;;;;1.23;1.10;;;18.10;56.40;;;;;;5094498;28;20487;-22
2023/03/16 16:47:51;;;;;;;;;;;18.00;56.40;;;;;;5095033;28;20024;-21
2023/03/16 16:50:24;;;;;;;2.22;1.27;;;18.00;56.00;;;;;;5093860;28;19923;-21
2023/03/16 16:52:51;;;;;;;1.20;1.00;;;18.00;56.50;;;;;;5095126;28;20024;-21